sensor_id;sensor_type;location;lat;lon;timestamp;pressure;altitude;pressure_sealevel;temperature;humidity
29433;BME280;16405;53.964;13.448;2024-03-22T00:02:09;101550.19;;;5.87;100.00
29433;BME280;16405;53.964;13.448;2024-03-22T00:04:36;101553.66;;;5.87;100.00
29433;BME280;16405;53.964;13.448;2024-03-22T00:07:02;101553.66;;;5.87;100.00
29433;BME280;16405;53.964;13.448;2024-03-22T00:09:29;101551.06;;;5.87;100.00
29433;BME280;16405;53.964;13.448;2024-03-22T00:11:54;101548.44;;;5.89;100.00
29433;BME280;16405;53.964;13.448;2024-03-22T00:14:23;101541.44;;;5.89;100.00
29433;BME280;16405;53.964;13.448;2024-03-22T00:16:50;101544.91;;;5.91;100.00
29433;BME280;16405;53.964;13.448;2024-03-22T00:19:16;101534.44;;;5.91;100.00
29433;BME280;16405;53.964;13.448;2024-03-22T00:21:42;101533.56;;;5.92;100.00
29433;BME280;16405;53.964;13.448;2024-03-22T00:24:08;101526.59;;;5.93;100.00
29433;BME280;16405;53.964;13.448;2024-03-22T00:26:34;101522.22;;;5.95;100.00
29433;BME280;16405;53.964;13.448;2024-03-22T00:28:59;101523.94;;;5.98;100.00
29433;BME280;16405;53.964;13.448;2024-03-22T00:31:33;101519.59;;;5.97;100.00
29433;BME280;16405;53.964;13.448;2024-03-22T00:33:59;101516.94;;;6.00;100.00
29433;BME280;16405;53.964;13.448;2024-03-22T00:36:24;101512.63;;;5.95;100.00
29433;BME280;16405;53.964;13.448;2024-03-22T00:38:50;101514.38;;;5.97;100.00
29433;BME280;16405;53.964;13.448;2024-03-22T00:41:21;101509.09;;;5.98;100.00
29433;BME280;16405;53.964;13.448;2024-03-22T00:43:47;101510.00;;;5.99;100.00
29433;BME280;16405;53.964;13.448;2024-03-22T00:46:13;101495.16;;;5.99;100.00
29433;BME280;16405;53.964;13.448;2024-03-22T00:48:39;101495.16;;;5.99;100.00
29433;BME280;16405;53.964;13.448;2024-03-22T00:51:05;101489.09;;;5.97;100.00
29433;BME280;16405;53.964;13.448;2024-03-22T00:53:33;101492.56;;;5.98;100.00
29433;BME280;16405;53.964;13.448;2024-03-22T00:56:01;101482.16;;;5.94;100.00
29433;BME280;16405;53.964;13.448;2024-03-22T00:58:27;101473.41;;;5.95;100.00
29433;BME280;16405;53.964;13.448;2024-03-22T01:00:54;101466.44;;;5.96;100.00
29433;BME280;16405;53.964;13.448;2024-03-22T01:03:21;101462.09;;;5.97;100.00
29433;BME280;16405;53.964;13.448;2024-03-22T01:05:55;101460.34;;;5.97;100.00
29433;BME280;16405;53.964;13.448;2024-03-22T01:08:22;101462.09;;;5.97;100.00
29433;BME280;16405;53.964;13.448;2024-03-22T01:10:48;101447.28;;;5.95;100.00
29433;BME280;16405;53.964;13.448;2024-03-22T01:13:15;101437.72;;;5.94;100.00
29433;BME280;16405;53.964;13.448;2024-03-22T01:15:45;101436.81;;;5.95;100.00
29433;BME280;16405;53.964;13.448;2024-03-22T01:18:14;101436.81;;;5.97;100.00
29433;BME280;16405;53.964;13.448;2024-03-22T01:20:40;101442.88;;;5.98;100.00
29433;BME280;16405;53.964;13.448;2024-03-22T01:23:05;101432.44;;;5.98;100.00
29433;BME280;16405;53.964;13.448;2024-03-22T01:25:37;101433.28;;;6.00;100.00
29433;BME280;16405;53.964;13.448;2024-03-22T01:28:03;101426.28;;;6.00;100.00
29433;BME280;16405;53.964;13.448;2024-03-22T01:30:30;101428.03;;;6.00;100.00
29433;BME280;16405;53.964;13.448;2024-03-22T01:32:56;101428.94;;;5.99;100.00
29433;BME280;16405;53.964;13.448;2024-03-22T01:35:21;101421.06;;;6.00;100.00
29433;BME280;16405;53.964;13.448;2024-03-22T01:37:55;101415.88;;;5.99;100.00
29433;BME280;16405;53.964;13.448;2024-03-22T01:40:20;101400.19;;;5.99;100.00
29433;BME280;16405;53.964;13.448;2024-03-22T01:42:46;101401.06;;;5.99;100.00
29433;BME280;16405;53.964;13.448;2024-03-22T01:45:14;101398.44;;;5.98;100.00
29433;BME280;16405;53.964;13.448;2024-03-22T01:47:43;101396.69;;;5.98;100.00
29433;BME280;16405;53.964;13.448;2024-03-22T01:50:10;101380.06;;;6.02;100.00
29433;BME280;16405;53.964;13.448;2024-03-22T01:52:38;101377.38;;;6.07;100.00
29433;BME280;16405;53.964;13.448;2024-03-22T01:55:04;101376.56;;;6.05;100.00
29433;BME280;16405;53.964;13.448;2024-03-22T01:57:40;101374.81;;;6.04;100.00
29433;BME280;16405;53.964;13.448;2024-03-22T02:00:07;101383.59;;;6.01;100.00
29433;BME280;16405;53.964;13.448;2024-03-22T02:02:35;101379.28;;;5.99;100.00
29433;BME280;16405;53.964;13.448;2024-03-22T02:05:14;101373.16;;;6.00;100.00
29433;BME280;16405;53.964;13.448;2024-03-22T02:07:43;101361.84;;;5.99;100.00
29433;BME280;16405;53.964;13.448;2024-03-22T02:10:11;101367.03;;;6.01;100.00
29433;BME280;16405;53.964;13.448;2024-03-22T02:12:39;101351.38;;;6.01;100.00
29433;BME280;16405;53.964;13.448;2024-03-22T02:15:06;101342.63;;;6.02;100.00
29433;BME280;16405;53.964;13.448;2024-03-22T02:17:41;101346.13;;;6.01;100.00
29433;BME280;16405;53.964;13.448;2024-03-22T02:20:07;101336.53;;;6.01;100.00
29433;BME280;16405;53.964;13.448;2024-03-22T02:22:33;101337.38;;;6.02;100.00
29433;BME280;16405;53.964;13.448;2024-03-22T02:25:01;101330.41;;;6.02;100.00
29433;BME280;16405;53.964;13.448;2024-03-22T02:27:30;101321.66;;;6.05;100.00
29433;BME280;16405;53.964;13.448;2024-03-22T02:29:56;101319.84;;;6.07;100.00
29433;BME280;16405;53.964;13.448;2024-03-22T02:32:22;101318.16;;;6.04;100.00
29433;BME280;16405;53.964;13.448;2024-03-22T02:34:47;101303.22;;;6.11;100.00
29433;BME280;16405;53.964;13.448;2024-03-22T02:37:13;101296.16;;;6.16;100.00
29433;BME280;16405;53.964;13.448;2024-03-22T02:39:48;101276.09;;;6.18;100.00
29433;BME280;16405;53.964;13.448;2024-03-22T02:42:13;101276.91;;;6.20;100.00
29433;BME280;16405;53.964;13.448;2024-03-22T02:44:39;101265.56;;;6.20;100.00
29433;BME280;16405;53.964;13.448;2024-03-22T02:47:11;101266.41;;;6.22;100.00
29433;BME280;16405;53.964;13.448;2024-03-22T02:49:40;101266.38;;;6.25;100.00
29433;BME280;16405;53.964;13.448;2024-03-22T02:52:06;101261.16;;;6.23;100.00
29433;BME280;16405;53.964;13.448;2024-03-22T02:54:31;101268.13;;;6.24;100.00
29433;BME280;16405;53.964;13.448;2024-03-22T02:56:57;101262.13;;;6.18;100.00
29433;BME280;16405;53.964;13.448;2024-03-22T02:59:29;101255.13;;;6.20;100.00
29433;BME280;16405;53.964;13.448;2024-03-22T03:01:58;101258.63;;;6.20;100.00
29433;BME280;16405;53.964;13.448;2024-03-22T03:04:23;101259.50;;;6.19;100.00
29433;BME280;16405;53.964;13.448;2024-03-22T03:06:49;101254.34;;;6.16;100.00
29433;BME280;16405;53.964;13.448;2024-03-22T03:09:20;101249.94;;;6.18;100.00
29433;BME280;16405;53.964;13.448;2024-03-22T03:11:46;101256.03;;;6.17;100.00
29433;BME280;16405;53.964;13.448;2024-03-22T03:14:11;101262.09;;;6.19;100.00
29433;BME280;16405;53.964;13.448;2024-03-22T03:16:37;101266.47;;;6.19;100.00
29433;BME280;16405;53.964;13.448;2024-03-22T03:19:03;101267.34;;;6.18;100.00
29433;BME280;16405;53.964;13.448;2024-03-22T03:21:29;101258.63;;;6.20;100.00
29433;BME280;16405;53.964;13.448;2024-03-22T03:24:02;101252.47;;;6.21;100.00
29433;BME280;16405;53.964;13.448;2024-03-22T03:26:28;101250.69;;;6.23;100.00
29433;BME280;16405;53.964;13.448;2024-03-22T03:28:54;101245.44;;;6.25;100.00
29433;BME280;16405;53.964;13.448;2024-03-22T03:31:21;101243.69;;;6.25;100.00
29433;BME280;16405;53.964;13.448;2024-03-22T03:33:47;101232.31;;;6.26;100.00
29433;BME280;16405;53.964;13.448;2024-03-22T03:36:20;101225.34;;;6.27;100.00
29433;BME280;16405;53.964;13.448;2024-03-22T03:38:46;101215.81;;;6.24;100.00
29433;BME280;16405;53.964;13.448;2024-03-22T03:41:11;101208.84;;;6.25;100.00
29433;BME280;16405;53.964;13.448;2024-03-22T03:43:37;101200.13;;;6.24;100.00
29433;BME280;16405;53.964;13.448;2024-03-22T03:46:03;101196.59;;;6.27;100.00
29433;BME280;16405;53.964;13.448;2024-03-22T03:48:34;101194.78;;;6.29;100.00
29433;BME280;16405;53.964;13.448;2024-03-22T03:50:59;101187.00;;;6.26;100.00
29433;BME280;16405;53.964;13.448;2024-03-22T03:53:29;101199.16;;;6.28;100.00
29433;BME280;16405;53.964;13.448;2024-03-22T03:55:58;101186.91;;;6.30;100.00
29433;BME280;16405;53.964;13.448;2024-03-22T03:58:24;101188.66;;;6.30;100.00
29433;BME280;16405;53.964;13.448;2024-03-22T04:00:50;101186.84;;;6.33;100.00
29433;BME280;16405;53.964;13.448;2024-03-22T04:03:16;101192.06;;;6.33;100.00
29433;BME280;16405;53.964;13.448;2024-03-22T04:05:42;101185.06;;;6.35;100.00
29433;BME280;16405;53.964;13.448;2024-03-22T04:08:08;101188.44;;;6.39;100.00
29433;BME280;16405;53.964;13.448;2024-03-22T04:10:33;101184.09;;;6.40;100.00
29433;BME280;16405;53.964;13.448;2024-03-22T04:13:07;101175.28;;;6.44;100.00
29433;BME280;16405;53.964;13.448;2024-03-22T04:15:35;101170.97;;;6.41;100.00
29433;BME280;16405;53.964;13.448;2024-03-22T04:18:00;101161.31;;;6.45;100.00
29433;BME280;16405;53.964;13.448;2024-03-22T04:20:26;101165.59;;;6.49;100.00
29433;BME280;16405;53.964;13.448;2024-03-22T04:22:57;101167.38;;;6.47;100.00
29433;BME280;16405;53.964;13.448;2024-03-22T04:25:22;101157.72;;;6.49;100.00
29433;BME280;16405;53.964;13.448;2024-03-22T04:27:48;101153.31;;;6.51;100.00
29433;BME280;16405;53.964;13.448;2024-03-22T04:30:14;101154.13;;;6.54;100.00
29433;BME280;16405;53.964;13.448;2024-03-22T04:32:40;101161.09;;;6.54;100.00
29433;BME280;16405;53.964;13.448;2024-03-22T04:35:06;101152.34;;;6.55;100.00
29433;BME280;16405;53.964;13.448;2024-03-22T04:37:34;101143.59;;;6.56;100.00
29433;BME280;16405;53.964;13.448;2024-03-22T04:40:04;101138.34;;;6.57;100.00
29433;BME280;16405;53.964;13.448;2024-03-22T04:42:30;101125.22;;;6.59;100.00
29433;BME280;16405;53.964;13.448;2024-03-22T04:44:56;101127.78;;;6.61;100.00
29433;BME280;16405;53.964;13.448;2024-03-22T04:47:23;101131.28;;;6.61;100.00
29433;BME280;16405;53.964;13.448;2024-03-22T04:49:56;101121.66;;;6.63;100.00
29433;BME280;16405;53.964;13.448;2024-03-22T04:52:22;101109.41;;;6.65;100.00
29433;BME280;16405;53.964;13.448;2024-03-22T04:54:48;101106.72;;;6.67;100.00
29433;BME280;16405;53.964;13.448;2024-03-22T04:57:17;101091.88;;;6.67;100.00
29433;BME280;16405;53.964;13.448;2024-03-22T04:59:45;101083.13;;;6.68;100.00
29433;BME280;16405;53.964;13.448;2024-03-22T05:02:11;101083.97;;;6.70;100.00
29433;BME280;16405;53.964;13.448;2024-03-22T05:04:37;101090.06;;;6.69;100.00
29433;BME280;16405;53.964;13.448;2024-03-22T05:07:03;101083.13;;;6.68;100.00
29433;BME280;16405;53.964;13.448;2024-03-22T05:09:28;101082.28;;;6.68;100.00
29433;BME280;16405;53.964;13.448;2024-03-22T05:12:00;101085.72;;;6.70;100.00
29433;BME280;16405;53.964;13.448;2024-03-22T05:14:26;101089.09;;;6.73;100.00
29433;BME280;16405;53.964;13.448;2024-03-22T05:16:52;101089.06;;;6.75;100.00
29433;BME280;16405;53.964;13.448;2024-03-22T05:19:18;101089.94;;;6.75;100.00
29433;BME280;16405;53.964;13.448;2024-03-22T05:21:44;101083.75;;;6.78;100.00
29433;BME280;16405;53.964;13.448;2024-03-22T05:24:10;101081.94;;;6.80;100.00
29433;BME280;16405;53.964;13.448;2024-03-22T05:26:45;101088.00;;;6.82;100.00
29433;BME280;16405;53.964;13.448;2024-03-22T05:29:10;101075.84;;;6.81;100.00
29433;BME280;16405;53.964;13.448;2024-03-22T05:31:47;101074.88;;;6.85;100.00
29433;BME280;16405;53.964;13.448;2024-03-22T05:34:14;101061.72;;;6.87;100.00
29433;BME280;16405;53.964;13.448;2024-03-22T05:36:52;101063.44;;;6.88;100.00
29433;BME280;16405;53.964;13.448;2024-03-22T05:39:18;101049.44;;;6.89;100.00
29433;BME280;16405;53.964;13.448;2024-03-22T05:41:52;101041.53;;;6.92;100.00
29433;BME280;16405;53.964;13.448;2024-03-22T05:44:18;101055.44;;;6.94;100.00
29433;BME280;16405;53.964;13.448;2024-03-22T05:46:43;101044.06;;;6.95;100.00
29433;BME280;16405;53.964;13.448;2024-03-22T05:49:09;101037.84;;;6.99;100.00
29433;BME280;16405;53.964;13.448;2024-03-22T05:51:35;101043.91;;;7.01;100.00
29433;BME280;16405;53.964;13.448;2024-03-22T05:54:01;101036.81;;;7.05;100.00
29433;BME280;16405;53.964;13.448;2024-03-22T05:56:34;101041.03;;;7.10;100.00
29433;BME280;16405;53.964;13.448;2024-03-22T05:59:00;101035.78;;;7.10;100.00
29433;BME280;16405;53.964;13.448;2024-03-22T06:01:28;101039.22;;;7.12;100.00
29433;BME280;16405;53.964;13.448;2024-03-22T06:04:01;101039.97;;;7.17;100.00
29433;BME280;16405;53.964;13.448;2024-03-22T06:06:27;101033.00;;;7.16;100.00
29433;BME280;16405;53.964;13.448;2024-03-22T06:08:52;101037.25;;;7.21;100.00
29433;BME280;16405;53.964;13.448;2024-03-22T06:11:20;101032.06;;;7.19;100.00
29433;BME280;16405;53.964;13.448;2024-03-22T06:14:12;101026.78;;;7.21;100.00
29433;BME280;16405;53.964;13.448;2024-03-22T06:16:38;101031.06;;;7.23;100.00
29433;BME280;16405;53.964;13.448;2024-03-22T06:19:03;101037.91;;;7.29;100.00
29433;BME280;16405;53.964;13.448;2024-03-22T06:21:29;101043.97;;;7.31;100.00
29433;BME280;16405;53.964;13.448;2024-03-22T06:24:03;101037.81;;;7.32;100.00
29433;BME280;16405;53.964;13.448;2024-03-22T06:26:29;101035.09;;;7.36;100.00
29433;BME280;16405;53.964;13.448;2024-03-22T06:28:55;101036.66;;;7.42;100.00
29433;BME280;16405;53.964;13.448;2024-03-22T06:31:20;101037.47;;;7.44;100.00
29433;BME280;16405;53.964;13.448;2024-03-22T06:33:46;101034.13;;;7.39;100.00
29433;BME280;16405;53.964;13.448;2024-03-22T06:36:17;101027.16;;;7.38;100.00
29433;BME280;16405;53.964;13.448;2024-03-22T06:38:43;101021.75;;;7.44;100.00
29433;BME280;16405;53.964;13.448;2024-03-22T06:41:09;101017.44;;;7.43;100.00
29433;BME280;16405;53.964;13.448;2024-03-22T06:46:26;101011.13;;;7.49;100.00
29433;BME280;16405;53.964;13.448;2024-03-22T06:48:52;100994.66;;;7.45;100.00
29433;BME280;16405;53.964;13.448;2024-03-22T06:51:18;101002.31;;;7.51;100.00
29433;BME280;16405;53.964;13.448;2024-03-22T06:53:44;100993.53;;;7.54;100.00
29433;BME280;16405;53.964;13.448;2024-03-22T06:56:14;100998.72;;;7.55;100.00
29433;BME280;16405;53.964;13.448;2024-03-22T06:58:43;100981.34;;;7.51;100.00
29433;BME280;16405;53.964;13.448;2024-03-22T07:01:09;100976.84;;;7.56;100.00
29433;BME280;16405;53.964;13.448;2024-03-22T07:03:35;100972.50;;;7.55;100.00
29433;BME280;16405;53.964;13.448;2024-03-22T07:06:01;100959.47;;;7.54;100.00
29433;BME280;16405;53.964;13.448;2024-03-22T07:08:29;100956.59;;;7.62;100.00
29433;BME280;16405;53.964;13.448;2024-03-22T07:10:57;100960.94;;;7.63;100.00
29433;BME280;16405;53.964;13.448;2024-03-22T07:13:23;100973.16;;;7.62;100.00
29433;BME280;16405;53.964;13.448;2024-03-22T07:15:49;100975.72;;;7.65;100.00
29433;BME280;16405;53.964;13.448;2024-03-22T07:18:15;100972.25;;;7.65;100.00
29433;BME280;16405;53.964;13.448;2024-03-22T07:20:47;100963.50;;;7.64;100.00
29433;BME280;16405;53.964;13.448;2024-03-22T07:23:14;100968.75;;;7.64;100.00
29433;BME280;16405;53.964;13.448;2024-03-22T07:25:40;100966.03;;;7.67;100.00
29433;BME280;16405;53.964;13.448;2024-03-22T07:28:08;100959.69;;;7.74;100.00
29433;BME280;16405;53.964;13.448;2024-03-22T07:30:34;100955.31;;;7.75;100.00
29433;BME280;16405;53.964;13.448;2024-03-22T07:33:04;100964.09;;;7.74;100.00
29433;BME280;16405;53.964;13.448;2024-03-22T07:35:30;100964.91;;;7.76;100.00
29433;BME280;16405;53.964;13.448;2024-03-22T07:37:56;100966.59;;;7.77;100.00
29433;BME280;16405;53.964;13.448;2024-03-22T07:40:22;100959.47;;;7.82;100.00
29433;BME280;16405;53.964;13.448;2024-03-22T07:42:48;100964.59;;;7.85;100.00
29433;BME280;16405;53.964;13.448;2024-03-22T07:45:14;100956.84;;;7.82;100.00
29433;BME280;16405;53.964;13.448;2024-03-22T07:47:42;100958.47;;;7.86;100.00
29433;BME280;16405;53.964;13.448;2024-03-22T07:50:11;100953.97;;;7.90;100.00
29433;BME280;16405;53.964;13.448;2024-03-22T07:52:37;100947.88;;;7.89;100.00
29433;BME280;16405;53.964;13.448;2024-03-22T07:55:03;100932.09;;;7.91;100.00
29433;BME280;16405;53.964;13.448;2024-03-22T07:57:29;100928.53;;;7.93;100.00
29433;BME280;16405;53.964;13.448;2024-03-22T08:00:02;100924.94;;;7.96;100.00
29433;BME280;16405;53.964;13.448;2024-03-22T08:02:28;100912.78;;;7.93;100.00
29433;BME280;16405;53.964;13.448;2024-03-22T08:04:54;100903.13;;;7.95;100.00
29433;BME280;16405;53.964;13.448;2024-03-22T08:07:19;100904.72;;;7.99;100.00
29433;BME280;16405;53.964;13.448;2024-03-22T08:09:45;100904.53;;;8.06;100.00
29433;BME280;16405;53.964;13.448;2024-03-22T08:12:18;100902.69;;;8.08;100.00
29433;BME280;16405;53.964;13.448;2024-03-22T08:14:45;100892.78;;;8.16;100.00
29433;BME280;16405;53.964;13.448;2024-03-22T08:17:11;100894.25;;;8.25;100.00
29433;BME280;16405;53.964;13.448;2024-03-22T08:19:37;100899.09;;;8.37;100.00
29433;BME280;16405;53.964;13.448;2024-03-22T08:22:11;100898.94;;;8.41;100.00
29433;BME280;16405;53.964;13.448;2024-03-22T08:24:37;100888.06;;;8.52;100.00
29433;BME280;16405;53.964;13.448;2024-03-22T08:27:03;100893.06;;;8.60;100.00
29433;BME280;16405;53.964;13.448;2024-03-22T08:29:29;100889.47;;;8.62;100.00
29433;BME280;16405;53.964;13.448;2024-03-22T08:31:59;100883.03;;;8.71;100.00
29433;BME280;16405;53.964;13.448;2024-03-22T08:34:28;100890.56;;;8.80;100.00
29433;BME280;16405;53.964;13.448;2024-03-22T08:36:54;100880.88;;;8.82;100.00
29433;BME280;16405;53.964;13.448;2024-03-22T08:39:20;100874.63;;;8.85;100.00
29433;BME280;16405;53.964;13.448;2024-03-22T08:41:46;100873.69;;;8.88;100.00
29433;BME280;16405;53.964;13.448;2024-03-22T08:44:19;100874.31;;;8.94;100.00
29433;BME280;16405;53.964;13.448;2024-03-22T08:46:45;100882.91;;;8.98;100.00
29433;BME280;16405;53.964;13.448;2024-03-22T08:49:11;100883.72;;;9.00;100.00
29433;BME280;16405;53.964;13.448;2024-03-22T08:51:38;100875.66;;;9.04;100.00
29433;BME280;16405;53.964;13.448;2024-03-22T08:54:08;100851.84;;;9.09;100.00
29433;BME280;16405;53.964;13.448;2024-03-22T08:56:34;100855.16;;;9.14;100.00
29433;BME280;16405;53.964;13.448;2024-03-22T08:59:00;100867.31;;;9.17;100.00
29433;BME280;16405;53.964;13.448;2024-03-22T09:01:26;100867.13;;;9.21;100.00
29433;BME280;16405;53.964;13.448;2024-03-22T09:03:52;100876.38;;;9.32;100.00
29433;BME280;16405;53.964;13.448;2024-03-22T09:06:23;100870.38;;;9.28;100.00
29433;BME280;16405;53.964;13.448;2024-03-22T09:08:49;100872.69;;;9.37;100.00
29433;BME280;16405;53.964;13.448;2024-03-22T09:11:15;100870.81;;;9.39;100.00
29433;BME280;16405;53.964;13.448;2024-03-22T09:13:44;100863.50;;;9.48;100.00
29433;BME280;16405;53.964;13.448;2024-03-22T09:16:17;100858.84;;;9.54;100.00
29433;BME280;16405;53.964;13.448;2024-03-22T09:18:43;100856.28;;;9.53;100.00
29433;BME280;16405;53.964;13.448;2024-03-22T09:21:10;100856.75;;;9.62;100.00
29433;BME280;16405;53.964;13.448;2024-03-22T09:23:36;100855.59;;;9.70;100.00
29433;BME280;16405;53.964;13.448;2024-03-22T09:26:02;100850.97;;;9.76;100.00
29433;BME280;16405;53.964;13.448;2024-03-22T09:28:33;100845.25;;;9.87;100.00
29433;BME280;16405;53.964;13.448;2024-03-22T09:31:04;100841.44;;;9.94;100.00
29433;BME280;16405;53.964;13.448;2024-03-22T09:33:37;100845.56;;;10.00;100.00
29433;BME280;16405;53.964;13.448;2024-03-22T09:36:06;100837.75;;;9.98;100.00
29433;BME280;16405;53.964;13.448;2024-03-22T09:38:33;100835.66;;;10.06;100.00
29433;BME280;16405;53.964;13.448;2024-03-22T09:41:06;100843.56;;;10.06;100.00
29433;BME280;16405;53.964;13.448;2024-03-22T09:43:33;100852.16;;;10.10;100.00
29433;BME280;16405;53.964;13.448;2024-03-22T09:46:10;100835.38;;;10.13;100.00
29433;BME280;16405;53.964;13.448;2024-03-22T09:48:52;100836.75;;;10.21;99.49
29433;BME280;16405;53.964;13.448;2024-03-22T09:51:25;100844.94;;;10.36;99.96
29433;BME280;16405;53.964;13.448;2024-03-22T09:53:56;100821.78;;;10.44;99.28
29433;BME280;16405;53.964;13.448;2024-03-22T09:56:23;100823.00;;;10.56;99.37
29433;BME280;16405;53.964;13.448;2024-03-22T09:58:53;100811.06;;;10.67;99.33
29433;BME280;16405;53.964;13.448;2024-03-22T10:01:24;100821.13;;;10.78;98.61
29433;BME280;16405;53.964;13.448;2024-03-22T10:03:58;100808.34;;;10.88;97.99
29433;BME280;16405;53.964;13.448;2024-03-22T10:06:24;100800.44;;;10.88;96.28
29433;BME280;16405;53.964;13.448;2024-03-22T10:08:50;100792.56;;;10.88;95.11
29433;BME280;16405;53.964;13.448;2024-03-22T10:11:22;100788.72;;;10.76;95.07
29433;BME280;16405;53.964;13.448;2024-03-22T10:13:53;100781.44;;;10.81;96.26
29433;BME280;16405;53.964;13.448;2024-03-22T10:16:22;100785.81;;;10.82;96.25
29433;BME280;16405;53.964;13.448;2024-03-22T10:18:48;100761.22;;;10.82;96.62
29433;BME280;16405;53.964;13.448;2024-03-22T10:21:20;100765.53;;;10.84;96.46
29433;BME280;16405;53.964;13.448;2024-03-22T10:23:47;100774.78;;;10.93;96.38
29433;BME280;16405;53.964;13.448;2024-03-22T10:26:14;100788.13;;;11.07;97.23
29433;BME280;16405;53.964;13.448;2024-03-22T10:28:52;100792.09;;;11.16;96.10
29433;BME280;16405;53.964;13.448;2024-03-22T10:31:20;100789.22;;;11.21;95.33
29433;BME280;16405;53.964;13.448;2024-03-22T10:33:52;100798.69;;;11.25;94.72
29433;BME280;16405;53.964;13.448;2024-03-22T10:36:20;100801.22;;;11.28;93.92
29433;BME280;16405;53.964;13.448;2024-03-22T10:38:47;100787.97;;;11.29;93.57
29433;BME280;16405;53.964;13.448;2024-03-22T10:41:20;100784.97;;;11.18;92.82
29433;BME280;16405;53.964;13.448;2024-03-22T10:43:49;100777.50;;;11.28;92.19
29433;BME280;16405;53.964;13.448;2024-03-22T10:46:17;100793.63;;;11.39;92.06
29433;BME280;16405;53.964;13.448;2024-03-22T10:48:57;100781.84;;;11.46;92.03
29433;BME280;16405;53.964;13.448;2024-03-22T10:51:28;100780.16;;;11.45;91.81
29433;BME280;16405;53.964;13.448;2024-03-22T10:54:06;100783.56;;;11.47;91.24
29433;BME280;16405;53.964;13.448;2024-03-22T10:56:36;100780.75;;;11.50;91.39
29433;BME280;16405;53.964;13.448;2024-03-22T10:59:08;100772.38;;;11.42;91.67
29433;BME280;16405;53.964;13.448;2024-03-22T11:01:44;100771.81;;;11.36;90.16
29433;BME280;16405;53.964;13.448;2024-03-22T11:04:19;100760.03;;;11.25;90.15
29433;BME280;16405;53.964;13.448;2024-03-22T11:06:59;100753.34;;;11.18;91.23
29433;BME280;16405;53.964;13.448;2024-03-22T11:09:26;100754.28;;;11.17;92.29
29433;BME280;16405;53.964;13.448;2024-03-22T11:11:58;100751.78;;;11.14;92.16
29433;BME280;16405;53.964;13.448;2024-03-22T11:14:29;100746.84;;;11.08;92.38
29433;BME280;16405;53.964;13.448;2024-03-22T11:17:00;100739.91;;;11.05;92.64
29433;BME280;16405;53.964;13.448;2024-03-22T11:19:31;100740.00;;;11.04;92.35
29433;BME280;16405;53.964;13.448;2024-03-22T11:22:08;100724.41;;;10.99;92.86
29433;BME280;16405;53.964;13.448;2024-03-22T11:24:42;100722.19;;;11.09;92.91
29433;BME280;16405;53.964;13.448;2024-03-22T11:27:18;100718.41;;;11.15;92.49
29433;BME280;16405;53.964;13.448;2024-03-22T11:29:48;100716.44;;;11.18;92.84
29433;BME280;16405;53.964;13.448;2024-03-22T11:32:17;100712.91;;;11.19;93.42
29433;BME280;16405;53.964;13.448;2024-03-22T11:34:46;100711.03;;;11.21;92.51
29433;BME280;16405;53.964;13.448;2024-03-22T11:37:13;100706.00;;;11.17;93.92
29433;BME280;16405;53.964;13.448;2024-03-22T11:39:48;100700.09;;;11.12;93.08
29433;BME280;16405;53.964;13.448;2024-03-22T11:42:16;100680.19;;;11.06;92.96
29433;BME280;16405;53.964;13.448;2024-03-22T11:44:48;100691.41;;;11.09;93.06
29433;BME280;16405;53.964;13.448;2024-03-22T11:47:17;100688.63;;;11.13;94.24
29433;BME280;16405;53.964;13.448;2024-03-22T11:49:43;100689.53;;;11.12;94.19
29433;BME280;16405;53.964;13.448;2024-03-22T11:52:12;100683.59;;;11.08;94.90
29433;BME280;16405;53.964;13.448;2024-03-22T11:54:51;100686.91;;;11.12;95.69
29433;BME280;16405;53.964;13.448;2024-03-22T11:57:26;100691.94;;;11.16;96.70
29433;BME280;16405;53.964;13.448;2024-03-22T12:00:03;100687.38;;;11.20;97.21
29433;BME280;16405;53.964;13.448;2024-03-22T12:02:32;100677.56;;;11.23;98.00
29433;BME280;16405;53.964;13.448;2024-03-22T12:05:08;100681.19;;;11.21;98.24
29433;BME280;16405;53.964;13.448;2024-03-22T12:07:40;100675.34;;;11.14;98.59
29433;BME280;16405;53.964;13.448;2024-03-22T12:10:09;100675.03;;;11.03;98.22
29433;BME280;16405;53.964;13.448;2024-03-22T12:12:35;100656.75;;;11.00;98.91
29433;BME280;16405;53.964;13.448;2024-03-22T12:15:03;100656.28;;;10.92;99.92
29433;BME280;16405;53.964;13.448;2024-03-22T12:17:29;100658.97;;;10.90;100.00
29433;BME280;16405;53.964;13.448;2024-03-22T12:19:58;100653.31;;;10.80;100.00
29433;BME280;16405;53.964;13.448;2024-03-22T12:22:24;100649.75;;;10.81;100.00
29433;BME280;16405;53.964;13.448;2024-03-22T12:24:54;100657.53;;;10.84;100.00
29433;BME280;16405;53.964;13.448;2024-03-22T12:27:30;100661.00;;;10.85;100.00
29433;BME280;16405;53.964;13.448;2024-03-22T12:29:59;100651.75;;;10.76;100.00
29433;BME280;16405;53.964;13.448;2024-03-22T12:32:25;100646.78;;;10.70;100.00
29433;BME280;16405;53.964;13.448;2024-03-22T12:35:03;100642.53;;;10.67;100.00
29433;BME280;16405;53.964;13.448;2024-03-22T12:37:30;100645.22;;;10.66;100.00
29433;BME280;16405;53.964;13.448;2024-03-22T12:40:02;100653.91;;;10.68;100.00
29433;BME280;16405;53.964;13.448;2024-03-22T12:42:43;100651.28;;;10.68;100.00
29433;BME280;16405;53.964;13.448;2024-03-22T12:45:12;100630.44;;;10.63;100.00
29433;BME280;16405;53.964;13.448;2024-03-22T12:48:20;100637.28;;;10.67;100.00
29433;BME280;16405;53.964;13.448;2024-03-22T12:50:29;100637.34;;;10.66;100.00